sensor_id;sensor_type;location;lat;lon;timestamp;P1;durP1;ratioP1;P2;durP2;ratioP2
73421;SDS011;61637;47.760;-122.022;2023-03-05T00:00:01;9.5;;;3.0;;
73421;SDS011;61637;47.760;-122.022;2023-03-05T00:02:01;7.5;;;2.7;;
73421;SDS011;61637;47.760;-122.022;2023-03-05T00:04:04;8.6;;;3.0;;
73421;SDS011;61637;47.760;-122.022;2023-03-05T00:06:02;9.0;;;3.2;;
73421;SDS011;61637;47.760;-122.022;2023-03-05T00:08:02;7.2;;;2.9;;
73421;SDS011;61637;47.760;-122.022;2023-03-05T00:10:04;9.0;;;3.1;;
73421;SDS011;61637;47.760;-122.022;2023-03-05T00:12:02;8.3;;;3.0;;
73421;SDS011;61637;47.760;-122.022;2023-03-05T00:14:02;7.4;;;2.8;;
73421;SDS011;61637;47.760;-122.022;2023-03-05T00:16:01;8.6;;;2.8;;
73421;SDS011;61637;47.760;-122.022;2023-03-05T00:18:01;8.6;;;3.0;;
73421;SDS011;61637;47.760;-122.022;2023-03-05T00:20:01;8.4;;;3.1;;
73421;SDS011;61637;47.760;-122.022;2023-03-05T00:22:01;7.4;;;2.9;;
73421;SDS011;61637;47.760;-122.022;2023-03-05T00:24:04;8.0;;;2.8;;
73421;SDS011;61637;47.760;-122.022;2023-03-05T00:26:01;9.2;;;3.0;;
73421;SDS011;61637;47.760;-122.022;2023-03-05T00:28:02;8.4;;;3.1;;
73421;SDS011;61637;47.760;-122.022;2023-03-05T00:30:01;7.5;;;2.8;;
73421;SDS011;61637;47.760;-122.022;2023-03-05T00:32:01;9.0;;;2.9;;
73421;SDS011;61637;47.760;-122.022;2023-03-05T00:34:04;6.6;;;2.7;;
73421;SDS011;61637;47.760;-122.022;2023-03-05T00:36:05;7.2;;;2.6;;
73421;SDS011;61637;47.760;-122.022;2023-03-05T00:38:01;6.4;;;2.6;;
73421;SDS011;61637;47.760;-122.022;2023-03-05T00:40:01;7.6;;;2.9;;
73421;SDS011;61637;47.760;-122.022;2023-03-05T00:42:02;7.3;;;2.7;;
73421;SDS011;61637;47.760;-122.022;2023-03-05T00:44:01;8.0;;;2.8;;
73421;SDS011;61637;47.760;-122.022;2023-03-05T00:46:01;7.7;;;2.4;;
73421;SDS011;61637;47.760;-122.022;2023-03-05T00:48:02;6.5;;;2.5;;
73421;SDS011;61637;47.760;-122.022;2023-03-05T00:50:03;8.6;;;2.7;;
73421;SDS011;61637;47.760;-122.022;2023-03-05T00:52:01;6.9;;;2.6;;
73421;SDS011;61637;47.760;-122.022;2023-03-05T00:54:02;6.4;;;2.5;;
73421;SDS011;61637;47.760;-122.022;2023-03-05T00:56:01;7.4;;;2.6;;
73421;SDS011;61637;47.760;-122.022;2023-03-05T00:58:01;8.0;;;2.4;;
73421;SDS011;61637;47.760;-122.022;2023-03-05T01:00:02;6.0;;;2.4;;
73421;SDS011;61637;47.760;-122.022;2023-03-05T01:02:01;6.0;;;2.4;;
73421;SDS011;61637;47.760;-122.022;2023-03-05T01:04:02;7.1;;;2.4;;
73421;SDS011;61637;47.760;-122.022;2023-03-05T01:06:05;6.9;;;2.5;;
73421;SDS011;61637;47.760;-122.022;2023-03-05T01:08:01;8.3;;;2.6;;
73421;SDS011;61637;47.760;-122.022;2023-03-05T01:10:01;7.2;;;2.6;;
73421;SDS011;61637;47.760;-122.022;2023-03-05T01:12:01;7.3;;;2.4;;
73421;SDS011;61637;47.760;-122.022;2023-03-05T01:14:01;7.4;;;2.7;;
73421;SDS011;61637;47.760;-122.022;2023-03-05T01:16:02;6.8;;;2.5;;
73421;SDS011;61637;47.760;-122.022;2023-03-05T01:18:01;7.9;;;3.4;;
73421;SDS011;61637;47.760;-122.022;2023-03-05T01:20:02;10.9;;;7.7;;
73421;SDS011;61637;47.760;-122.022;2023-03-05T01:22:01;10.8;;;8.8;;
73421;SDS011;61637;47.760;-122.022;2023-03-05T01:24:01;11.6;;;10.4;;
73421;SDS011;61637;47.760;-122.022;2023-03-05T01:26:01;8.8;;;6.7;;
73421;SDS011;61637;47.760;-122.022;2023-03-05T01:28:02;7.8;;;5.6;;
73421;SDS011;61637;47.760;-122.022;2023-03-05T01:30:02;8.1;;;4.8;;
73421;SDS011;61637;47.760;-122.022;2023-03-05T01:32:01;7.2;;;4.6;;
73421;SDS011;61637;47.760;-122.022;2023-03-05T01:34:01;6.0;;;2.9;;
73421;SDS011;61637;47.760;-122.022;2023-03-05T01:36:01;5.7;;;2.7;;
73421;SDS011;61637;47.760;-122.022;2023-03-05T01:38:01;7.8;;;2.5;;
73421;SDS011;61637;47.760;-122.022;2023-03-05T01:40:02;6.8;;;3.0;;
73421;SDS011;61637;47.760;-122.022;2023-03-05T01:42:02;6.8;;;2.7;;
73421;SDS011;61637;47.760;-122.022;2023-03-05T01:44:01;6.8;;;2.6;;
73421;SDS011;61637;47.760;-122.022;2023-03-05T01:46:21;8.2;;;2.9;;
73421;SDS011;61637;47.760;-122.022;2023-03-05T01:48:01;8.4;;;5.3;;
73421;SDS011;61637;47.760;-122.022;2023-03-05T01:50:01;7.7;;;4.7;;
73421;SDS011;61637;47.760;-122.022;2023-03-05T01:52:05;7.1;;;3.9;;
73421;SDS011;61637;47.760;-122.022;2023-03-05T01:54:02;5.9;;;2.8;;
73421;SDS011;61637;47.760;-122.022;2023-03-05T01:56:01;6.2;;;2.7;;
73421;SDS011;61637;47.760;-122.022;2023-03-05T01:58:04;7.8;;;2.8;;
73421;SDS011;61637;47.760;-122.022;2023-03-05T02:00:07;5.8;;;2.0;;
73421;SDS011;61637;47.760;-122.022;2023-03-05T02:02:01;6.1;;;2.2;;
73421;SDS011;61637;47.760;-122.022;2023-03-05T02:04:01;5.5;;;2.2;;
73421;SDS011;61637;47.760;-122.022;2023-03-05T02:06:02;5.7;;;1.9;;
73421;SDS011;61637;47.760;-122.022;2023-03-05T02:08:04;6.5;;;2.0;;
73421;SDS011;61637;47.760;-122.022;2023-03-05T02:10:05;6.0;;;2.0;;
73421;SDS011;61637;47.760;-122.022;2023-03-05T02:12:01;5.6;;;2.2;;
73421;SDS011;61637;47.760;-122.022;2023-03-05T02:14:02;6.4;;;2.2;;
73421;SDS011;61637;47.760;-122.022;2023-03-05T02:16:01;5.1;;;2.0;;
73421;SDS011;61637;47.760;-122.022;2023-03-05T02:18:02;6.8;;;2.0;;
73421;SDS011;61637;47.760;-122.022;2023-03-05T02:20:05;6.9;;;1.9;;
73421;SDS011;61637;47.760;-122.022;2023-03-05T02:22:01;7.3;;;2.2;;
73421;SDS011;61637;47.760;-122.022;2023-03-05T02:24:01;7.6;;;2.2;;
73421;SDS011;61637;47.760;-122.022;2023-03-05T02:26:02;6.7;;;2.0;;
73421;SDS011;61637;47.760;-122.022;2023-03-05T02:28:06;5.3;;;1.9;;
73421;SDS011;61637;47.760;-122.022;2023-03-05T02:30:02;6.2;;;1.9;;
73421;SDS011;61637;47.760;-122.022;2023-03-05T02:32:01;6.0;;;2.0;;
73421;SDS011;61637;47.760;-122.022;2023-03-05T02:34:01;5.9;;;2.1;;
73421;SDS011;61637;47.760;-122.022;2023-03-05T02:36:01;7.0;;;2.0;;
73421;SDS011;61637;47.760;-122.022;2023-03-05T02:38:01;6.9;;;2.2;;
73421;SDS011;61637;47.760;-122.022;2023-03-05T02:40:02;7.3;;;2.0;;
73421;SDS011;61637;47.760;-122.022;2023-03-05T02:42:02;6.1;;;2.1;;
73421;SDS011;61637;47.760;-122.022;2023-03-05T02:44:02;6.3;;;2.3;;
73421;SDS011;61637;47.760;-122.022;2023-03-05T02:46:01;5.7;;;2.0;;
73421;SDS011;61637;47.760;-122.022;2023-03-05T02:48:01;5.7;;;2.1;;
73421;SDS011;61637;47.760;-122.022;2023-03-05T02:50:02;7.5;;;2.5;;
73421;SDS011;61637;47.760;-122.022;2023-03-05T02:52:01;6.2;;;2.7;;
73421;SDS011;61637;47.760;-122.022;2023-03-05T02:54:01;6.5;;;3.2;;
73421;SDS011;61637;47.760;-122.022;2023-03-05T02:56:02;7.2;;;3.4;;
73421;SDS011;61637;47.760;-122.022;2023-03-05T02:58:02;7.1;;;3.2;;
73421;SDS011;61637;47.760;-122.022;2023-03-05T03:00:01;6.6;;;4.2;;
73421;SDS011;61637;47.760;-122.022;2023-03-05T03:02:01;6.8;;;4.6;;
73421;SDS011;61637;47.760;-122.022;2023-03-05T03:04:01;8.2;;;5.4;;
73421;SDS011;61637;47.760;-122.022;2023-03-05T03:06:02;7.7;;;6.1;;
73421;SDS011;61637;47.760;-122.022;2023-03-05T03:08:01;8.2;;;6.1;;
73421;SDS011;61637;47.760;-122.022;2023-03-05T03:10:02;8.1;;;6.2;;
73421;SDS011;61637;47.760;-122.022;2023-03-05T03:12:02;10.2;;;9.1;;
73421;SDS011;61637;47.760;-122.022;2023-03-05T03:14:01;10.2;;;9.1;;
73421;SDS011;61637;47.760;-122.022;2023-03-05T03:16:03;9.8;;;7.7;;
73421;SDS011;61637;47.760;-122.022;2023-03-05T03:18:01;9.7;;;8.0;;
73421;SDS011;61637;47.760;-122.022;2023-03-05T03:20:03;10.4;;;8.6;;
73421;SDS011;61637;47.760;-122.022;2023-03-05T03:22:02;12.7;;;11.4;;
73421;SDS011;61637;47.760;-122.022;2023-03-05T03:24:01;13.3;;;12.0;;
73421;SDS011;61637;47.760;-122.022;2023-03-05T03:26:01;11.9;;;10.7;;
73421;SDS011;61637;47.760;-122.022;2023-03-05T03:28:01;12.0;;;10.6;;
73421;SDS011;61637;47.760;-122.022;2023-03-05T03:30:01;12.1;;;10.9;;
73421;SDS011;61637;47.760;-122.022;2023-03-05T03:32:01;9.6;;;8.3;;
73421;SDS011;61637;47.760;-122.022;2023-03-05T03:34:01;11.5;;;7.4;;
73421;SDS011;61637;47.760;-122.022;2023-03-05T03:36:02;9.9;;;7.2;;
73421;SDS011;61637;47.760;-122.022;2023-03-05T03:38:01;8.4;;;6.1;;
73421;SDS011;61637;47.760;-122.022;2023-03-05T03:40:01;10.1;;;7.4;;
73421;SDS011;61637;47.760;-122.022;2023-03-05T03:42:01;9.7;;;7.1;;
73421;SDS011;61637;47.760;-122.022;2023-03-05T03:44:01;10.4;;;7.5;;
73421;SDS011;61637;47.760;-122.022;2023-03-05T03:46:02;12.5;;;11.0;;
73421;SDS011;61637;47.760;-122.022;2023-03-05T03:48:01;12.7;;;11.4;;
73421;SDS011;61637;47.760;-122.022;2023-03-05T03:50:02;14.2;;;12.7;;
73421;SDS011;61637;47.760;-122.022;2023-03-05T03:52:02;14.4;;;12.6;;
73421;SDS011;61637;47.760;-122.022;2023-03-05T03:54:01;13.0;;;11.7;;
73421;SDS011;61637;47.760;-122.022;2023-03-05T03:56:02;14.9;;;13.4;;
73421;SDS011;61637;47.760;-122.022;2023-03-05T03:58:01;13.8;;;12.3;;
73421;SDS011;61637;47.760;-122.022;2023-03-05T04:00:01;15.1;;;13.5;;
73421;SDS011;61637;47.760;-122.022;2023-03-05T04:02:01;15.9;;;14.4;;
73421;SDS011;61637;47.760;-122.022;2023-03-05T04:04:02;15.0;;;13.5;;
73421;SDS011;61637;47.760;-122.022;2023-03-05T04:06:01;14.3;;;12.9;;
73421;SDS011;61637;47.760;-122.022;2023-03-05T04:08:01;12.9;;;11.5;;
73421;SDS011;61637;47.760;-122.022;2023-03-05T04:10:01;11.5;;;10.3;;
73421;SDS011;61637;47.760;-122.022;2023-03-05T04:12:01;14.1;;;10.6;;
73421;SDS011;61637;47.760;-122.022;2023-03-05T04:14:02;13.1;;;10.5;;
73421;SDS011;61637;47.760;-122.022;2023-03-05T04:16:01;16.3;;;13.5;;
73421;SDS011;61637;47.760;-122.022;2023-03-05T04:18:02;15.7;;;14.3;;
73421;SDS011;61637;47.760;-122.022;2023-03-05T04:20:02;14.7;;;13.4;;
73421;SDS011;61637;47.760;-122.022;2023-03-05T04:22:01;15.0;;;13.5;;
73421;SDS011;61637;47.760;-122.022;2023-03-05T04:24:01;15.0;;;13.5;;
73421;SDS011;61637;47.760;-122.022;2023-03-05T04:26:02;14.2;;;12.8;;
73421;SDS011;61637;47.760;-122.022;2023-03-05T04:28:01;14.6;;;13.2;;
73421;SDS011;61637;47.760;-122.022;2023-03-05T04:30:02;15.3;;;13.9;;
73421;SDS011;61637;47.760;-122.022;2023-03-05T04:32:02;15.1;;;12.8;;
73421;SDS011;61637;47.760;-122.022;2023-03-05T04:34:01;16.1;;;14.6;;
73421;SDS011;61637;47.760;-122.022;2023-03-05T04:36:01;15.7;;;14.2;;
73421;SDS011;61637;47.760;-122.022;2023-03-05T04:38:02;15.5;;;14.0;;
73421;SDS011;61637;47.760;-122.022;2023-03-05T04:40:01;16.6;;;14.3;;
73421;SDS011;61637;47.760;-122.022;2023-03-05T04:42:01;15.8;;;14.4;;
73421;SDS011;61637;47.760;-122.022;2023-03-05T04:44:01;16.1;;;14.7;;
73421;SDS011;61637;47.760;-122.022;2023-03-05T04:46:02;16.4;;;14.9;;
73421;SDS011;61637;47.760;-122.022;2023-03-05T04:48:01;17.2;;;15.6;;
73421;SDS011;61637;47.760;-122.022;2023-03-05T04:50:02;15.5;;;14.1;;
73421;SDS011;61637;47.760;-122.022;2023-03-05T04:52:01;16.8;;;15.3;;
73421;SDS011;61637;47.760;-122.022;2023-03-05T04:54:01;15.2;;;13.8;;
73421;SDS011;61637;47.760;-122.022;2023-03-05T04:56:01;16.0;;;14.5;;
73421;SDS011;61637;47.760;-122.022;2023-03-05T04:58:02;15.5;;;14.0;;
73421;SDS011;61637;47.760;-122.022;2023-03-05T05:00:01;15.0;;;13.5;;
73421;SDS011;61637;47.760;-122.022;2023-03-05T05:02:01;15.6;;;14.1;;
73421;SDS011;61637;47.760;-122.022;2023-03-05T05:04:02;15.4;;;13.9;;
73421;SDS011;61637;47.760;-122.022;2023-03-05T05:06:01;14.8;;;13.5;;
73421;SDS011;61637;47.760;-122.022;2023-03-05T05:08:02;15.1;;;13.7;;
73421;SDS011;61637;47.760;-122.022;2023-03-05T05:10:01;16.1;;;14.6;;
73421;SDS011;61637;47.760;-122.022;2023-03-05T05:12:01;16.2;;;14.7;;
73421;SDS011;61637;47.760;-122.022;2023-03-05T05:14:01;15.4;;;13.8;;
73421;SDS011;61637;47.760;-122.022;2023-03-05T05:16:02;15.6;;;14.2;;
73421;SDS011;61637;47.760;-122.022;2023-03-05T05:18:01;14.8;;;13.4;;
73421;SDS011;61637;47.760;-122.022;2023-03-05T05:20:03;15.3;;;13.9;;
73421;SDS011;61637;47.760;-122.022;2023-03-05T05:22:01;14.8;;;13.4;;
73421;SDS011;61637;47.760;-122.022;2023-03-05T05:24:01;15.6;;;14.1;;
73421;SDS011;61637;47.760;-122.022;2023-03-05T05:26:04;15.6;;;14.1;;
73421;SDS011;61637;47.760;-122.022;2023-03-05T05:28:02;14.4;;;13.0;;
73421;SDS011;61637;47.760;-122.022;2023-03-05T05:30:02;15.4;;;14.0;;
73421;SDS011;61637;47.760;-122.022;2023-03-05T05:32:01;15.5;;;14.1;;
73421;SDS011;61637;47.760;-122.022;2023-03-05T05:34:01;16.1;;;14.6;;
73421;SDS011;61637;47.760;-122.022;2023-03-05T05:36:01;15.5;;;14.0;;
73421;SDS011;61637;47.760;-122.022;2023-03-05T05:38:01;16.4;;;14.9;;
73421;SDS011;61637;47.760;-122.022;2023-03-05T05:40:01;17.7;;;15.0;;
73421;SDS011;61637;47.760;-122.022;2023-03-05T05:42:01;16.2;;;14.8;;
73421;SDS011;61637;47.760;-122.022;2023-03-05T05:44:01;16.3;;;14.7;;
73421;SDS011;61637;47.760;-122.022;2023-03-05T05:46:03;15.6;;;14.2;;
73421;SDS011;61637;47.760;-122.022;2023-03-05T05:48:01;16.4;;;14.9;;
73421;SDS011;61637;47.760;-122.022;2023-03-05T05:50:01;16.0;;;14.5;;
73421;SDS011;61637;47.760;-122.022;2023-03-05T05:52:01;16.6;;;14.8;;
73421;SDS011;61637;47.760;-122.022;2023-03-05T05:54:01;15.5;;;14.1;;
73421;SDS011;61637;47.760;-122.022;2023-03-05T05:56:04;15.3;;;13.9;;
73421;SDS011;61637;47.760;-122.022;2023-03-05T05:58:01;14.7;;;13.4;;
73421;SDS011;61637;47.760;-122.022;2023-03-05T06:00:02;15.2;;;13.7;;
73421;SDS011;61637;47.760;-122.022;2023-03-05T06:02:01;15.6;;;14.2;;
73421;SDS011;61637;47.760;-122.022;2023-03-05T06:04:02;15.5;;;14.0;;
73421;SDS011;61637;47.760;-122.022;2023-03-05T06:06:01;14.9;;;13.6;;
73421;SDS011;61637;47.760;-122.022;2023-03-05T06:08:01;16.2;;;14.7;;
73421;SDS011;61637;47.760;-122.022;2023-03-05T06:10:02;17.3;;;15.7;;
73421;SDS011;61637;47.760;-122.022;2023-03-05T06:12:02;15.1;;;13.8;;
73421;SDS011;61637;47.760;-122.022;2023-03-05T06:14:01;15.7;;;14.3;;
73421;SDS011;61637;47.760;-122.022;2023-03-05T06:16:05;16.0;;;14.5;;
73421;SDS011;61637;47.760;-122.022;2023-03-05T06:18:02;16.4;;;14.7;;
73421;SDS011;61637;47.760;-122.022;2023-03-05T06:20:01;15.7;;;14.4;;
73421;SDS011;61637;47.760;-122.022;2023-03-05T06:22:01;16.4;;;15.0;;
73421;SDS011;61637;47.760;-122.022;2023-03-05T06:24:02;16.8;;;15.2;;
73421;SDS011;61637;47.760;-122.022;2023-03-05T06:26:04;16.0;;;14.6;;
73421;SDS011;61637;47.760;-122.022;2023-03-05T06:28:01;15.9;;;14.4;;
73421;SDS011;61637;47.760;-122.022;2023-03-05T06:30:02;15.5;;;14.1;;
73421;SDS011;61637;47.760;-122.022;2023-03-05T06:32:02;16.3;;;14.8;;
73421;SDS011;61637;47.760;-122.022;2023-03-05T06:34:01;15.5;;;14.1;;
73421;SDS011;61637;47.760;-122.022;2023-03-05T06:36:03;15.2;;;13.7;;
73421;SDS011;61637;47.760;-122.022;2023-03-05T06:38:01;16.4;;;14.8;;
73421;SDS011;61637;47.760;-122.022;2023-03-05T06:40:01;17.3;;;15.7;;
73421;SDS011;61637;47.760;-122.022;2023-03-05T06:42:02;15.6;;;14.0;;
73421;SDS011;61637;47.760;-122.022;2023-03-05T06:44:02;18.0;;;16.4;;
73421;SDS011;61637;47.760;-122.022;2023-03-05T06:46:02;17.1;;;15.6;;
73421;SDS011;61637;47.760;-122.022;2023-03-05T06:48:01;17.7;;;16.2;;
73421;SDS011;61637;47.760;-122.022;2023-03-05T06:50:01;17.1;;;15.3;;
73421;SDS011;61637;47.760;-122.022;2023-03-05T06:52:02;17.2;;;15.6;;
73421;SDS011;61637;47.760;-122.022;2023-03-05T06:54:04;17.9;;;16.4;;
73421;SDS011;61637;47.760;-122.022;2023-03-05T06:56:01;17.5;;;15.8;;
73421;SDS011;61637;47.760;-122.022;2023-03-05T06:58:01;17.0;;;15.4;;
73421;SDS011;61637;47.760;-122.022;2023-03-05T07:00:02;16.7;;;15.1;;
73421;SDS011;61637;47.760;-122.022;2023-03-05T07:02:01;17.2;;;15.5;;
73421;SDS011;61637;47.760;-122.022;2023-03-05T07:04:01;15.8;;;14.3;;
73421;SDS011;61637;47.760;-122.022;2023-03-05T07:06:03;16.1;;;14.6;;
73421;SDS011;61637;47.760;-122.022;2023-03-05T07:08:01;16.5;;;15.1;;
73421;SDS011;61637;47.760;-122.022;2023-03-05T07:10:01;16.9;;;15.4;;
73421;SDS011;61637;47.760;-122.022;2023-03-05T07:12:01;16.8;;;15.3;;
73421;SDS011;61637;47.760;-122.022;2023-03-05T07:14:02;18.3;;;16.6;;
73421;SDS011;61637;47.760;-122.022;2023-03-05T07:16:05;17.0;;;15.4;;
73421;SDS011;61637;47.760;-122.022;2023-03-05T07:18:01;17.5;;;16.0;;
73421;SDS011;61637;47.760;-122.022;2023-03-05T07:20:02;16.2;;;14.7;;
73421;SDS011;61637;47.760;-122.022;2023-03-05T07:22:01;17.7;;;16.0;;
73421;SDS011;61637;47.760;-122.022;2023-03-05T07:24:03;17.3;;;15.6;;
73421;SDS011;61637;47.760;-122.022;2023-03-05T07:26:02;17.1;;;15.5;;
73421;SDS011;61637;47.760;-122.022;2023-03-05T07:28:01;17.0;;;15.4;;
73421;SDS011;61637;47.760;-122.022;2023-03-05T07:30:02;17.4;;;15.8;;
73421;SDS011;61637;47.760;-122.022;2023-03-05T07:32:02;18.0;;;16.3;;
73421;SDS011;61637;47.760;-122.022;2023-03-05T07:34:02;unavailable;;;unavailable;;
73421;SDS011;61637;47.760;-122.022;2023-03-05T07:36:01;18.1;;;16.4;;
73421;SDS011;61637;47.760;-122.022;2023-03-05T07:38:01;16.9;;;15.1;;
73421;SDS011;61637;47.760;-122.022;2023-03-05T07:40:01;16.9;;;15.4;;
73421;SDS011;61637;47.760;-122.022;2023-03-05T07:42:01;17.8;;;16.1;;
73421;SDS011;61637;47.760;-122.022;2023-03-05T07:44:02;17.8;;;16.2;;
73421;SDS011;61637;47.760;-122.022;2023-03-05T07:46:04;17.3;;;15.6;;
73421;SDS011;61637;47.760;-122.022;2023-03-05T07:48:01;17.6;;;16.1;;
73421;SDS011;61637;47.760;-122.022;2023-03-05T07:50:01;17.2;;;15.6;;
73421;SDS011;61637;47.760;-122.022;2023-03-05T07:52:01;16.5;;;14.9;;
73421;SDS011;61637;47.760;-122.022;2023-03-05T07:54:02;16.7;;;15.2;;
73421;SDS011;61637;47.760;-122.022;2023-03-05T07:56:02;16.0;;;14.5;;
73421;SDS011;61637;47.760;-122.022;2023-03-05T07:58:01;17.4;;;15.8;;
73421;SDS011;61637;47.760;-122.022;2023-03-05T08:00:01;16.3;;;14.8;;
73421;SDS011;61637;47.760;-122.022;2023-03-05T08:02:01;17.3;;;15.6;;
73421;SDS011;61637;47.760;-122.022;2023-03-05T08:04:01;16.0;;;14.5;;
73421;SDS011;61637;47.760;-122.022;2023-03-05T08:06:04;17.0;;;15.5;;
73421;SDS011;61637;47.760;-122.022;2023-03-05T08:08:01;16.8;;;15.2;;
73421;SDS011;61637;47.760;-122.022;2023-03-05T08:10:01;17.1;;;15.5;;
73421;SDS011;61637;47.760;-122.022;2023-03-05T08:12:01;17.2;;;15.4;;
73421;SDS011;61637;47.760;-122.022;2023-03-05T08:14:01;17.4;;;15.8;;
73421;SDS011;61637;47.760;-122.022;2023-03-05T08:16:04;16.9;;;15.3;;
73421;SDS011;61637;47.760;-122.022;2023-03-05T08:18:01;18.1;;;16.4;;
73421;SDS011;61637;47.760;-122.022;2023-03-05T08:20:01;18.2;;;16.6;;
73421;SDS011;61637;47.760;-122.022;2023-03-05T08:22:01;19.1;;;17.2;;
73421;SDS011;61637;47.760;-122.022;2023-03-05T08:24:02;18.5;;;16.7;;
73421;SDS011;61637;47.760;-122.022;2023-03-05T08:26:01;17.5;;;15.9;;
73421;SDS011;61637;47.760;-122.022;2023-03-05T08:28:01;19.1;;;17.4;;
73421;SDS011;61637;47.760;-122.022;2023-03-05T08:30:01;18.2;;;16.5;;
73421;SDS011;61637;47.760;-122.022;2023-03-05T08:32:02;18.5;;;16.7;;
73421;SDS011;61637;47.760;-122.022;2023-03-05T08:34:02;18.2;;;16.5;;
73421;SDS011;61637;47.760;-122.022;2023-03-05T08:36:01;18.2;;;16.6;;
73421;SDS011;61637;47.760;-122.022;2023-03-05T08:38:01;18.2;;;16.4;;
73421;SDS011;61637;47.760;-122.022;2023-03-05T08:40:01;19.2;;;17.4;;
73421;SDS011;61637;47.760;-122.022;2023-03-05T08:42:01;18.6;;;16.8;;
73421;SDS011;61637;47.760;-122.022;2023-03-05T08:44:01;17.9;;;16.1;;
73421;SDS011;61637;47.760;-122.022;2023-03-05T08:46:02;18.6;;;16.8;;
73421;SDS011;61637;47.760;-122.022;2023-03-05T08:48:01;18.0;;;16.3;;
73421;SDS011;61637;47.760;-122.022;2023-03-05T08:50:01;18.4;;;16.7;;
73421;SDS011;61637;47.760;-122.022;2023-03-05T08:52:01;18.7;;;17.0;;
73421;SDS011;61637;47.760;-122.022;2023-03-05T08:54:01;18.2;;;16.6;;
73421;SDS011;61637;47.760;-122.022;2023-03-05T08:56:01;17.5;;;15.9;;
73421;SDS011;61637;47.760;-122.022;2023-03-05T08:58:01;18.4;;;16.8;;
73421;SDS011;61637;47.760;-122.022;2023-03-05T09:00:01;18.4;;;16.7;;
73421;SDS011;61637;47.760;-122.022;2023-03-05T09:02:02;18.4;;;16.7;;
73421;SDS011;61637;47.760;-122.022;2023-03-05T09:04:01;18.4;;;16.7;;
73421;SDS011;61637;47.760;-122.022;2023-03-05T09:06:03;19.6;;;17.8;;
73421;SDS011;61637;47.760;-122.022;2023-03-05T09:08:01;19.8;;;17.9;;
73421;SDS011;61637;47.760;-122.022;2023-03-05T09:10:01;18.9;;;17.2;;
73421;SDS011;61637;47.760;-122.022;2023-03-05T09:12:01;19.6;;;17.8;;
73421;SDS011;61637;47.760;-122.022;2023-03-05T09:14:01;18.0;;;16.3;;
73421;SDS011;61637;47.760;-122.022;2023-03-05T09:16:04;19.6;;;17.7;;
73421;SDS011;61637;47.760;-122.022;2023-03-05T09:18:01;19.4;;;17.5;;
73421;SDS011;61637;47.760;-122.022;2023-03-05T09:20:03;19.3;;;17.5;;
73421;SDS011;61637;47.760;-122.022;2023-03-05T09:22:01;18.4;;;16.6;;
73421;SDS011;61637;47.760;-122.022;2023-03-05T09:24:01;20.2;;;18.4;;
73421;SDS011;61637;47.760;-122.022;2023-03-05T09:26:04;18.9;;;17.2;;
73421;SDS011;61637;47.760;-122.022;2023-03-05T09:28:01;20.9;;;18.8;;
73421;SDS011;61637;47.760;-122.022;2023-03-05T09:30:01;20.2;;;18.2;;
73421;SDS011;61637;47.760;-122.022;2023-03-05T09:32:01;19.1;;;17.3;;
73421;SDS011;61637;47.760;-122.022;2023-03-05T09:34:01;18.9;;;17.2;;
73421;SDS011;61637;47.760;-122.022;2023-03-05T09:36:02;18.3;;;16.6;;
73421;SDS011;61637;47.760;-122.022;2023-03-05T09:38:01;19.4;;;17.6;;
73421;SDS011;61637;47.760;-122.022;2023-03-05T09:40:01;19.0;;;17.3;;
73421;SDS011;61637;47.760;-122.022;2023-03-05T09:42:16;19.2;;;17.4;;
73421;SDS011;61637;47.760;-122.022;2023-03-05T09:44:08;19.2;;;17.4;;
73421;SDS011;61637;47.760;-122.022;2023-03-05T09:46:11;19.2;;;17.4;;
73421;SDS011;61637;47.760;-122.022;2023-03-05T09:48:08;19.6;;;17.7;;
73421;SDS011;61637;47.760;-122.022;2023-03-05T09:50:07;20.2;;;18.3;;
73421;SDS011;61637;47.760;-122.022;2023-03-05T09:52:10;20.0;;;18.2;;
73421;SDS011;61637;47.760;-122.022;2023-03-05T09:54:04;19.4;;;17.6;;
73421;SDS011;61637;47.760;-122.022;2023-03-05T09:56:04;19.1;;;17.4;;
73421;SDS011;61637;47.760;-122.022;2023-03-05T09:58:05;19.9;;;18.2;;
73421;SDS011;61637;47.760;-122.022;2023-03-05T10:00:05;19.1;;;17.4;;
73421;SDS011;61637;47.760;-122.022;2023-03-05T10:02:10;18.7;;;17.0;;
73421;SDS011;61637;47.760;-122.022;2023-03-05T10:04:08;19.7;;;17.9;;
73421;SDS011;61637;47.760;-122.022;2023-03-05T10:06:04;21.0;;;19.1;;
73421;SDS011;61637;47.760;-122.022;2023-03-05T10:08:04;19.6;;;17.6;;
73421;SDS011;61637;47.760;-122.022;2023-03-05T10:10:04;19.1;;;17.3;;
73421;SDS011;61637;47.760;-122.022;2023-03-05T10:12:06;19.4;;;17.6;;
73421;SDS011;61637;47.760;-122.022;2023-03-05T10:14:02;19.2;;;17.3;;
73421;SDS011;61637;47.760;-122.022;2023-03-05T10:16:09;18.9;;;17.2;;
73421;SDS011;61637;47.760;-122.022;2023-03-05T10:18:12;18.7;;;17.0;;
73421;SDS011;61637;47.760;-122.022;2023-03-05T10:20:07;18.3;;;16.6;;
73421;SDS011;61637;47.760;-122.022;2023-03-05T10:22:13;18.7;;;17.0;;
73421;SDS011;61637;47.760;-122.022;2023-03-05T10:24:08;19.6;;;17.7;;
73421;SDS011;61637;47.760;-122.022;2023-03-05T10:26:11;19.0;;;17.2;;
73421;SDS011;61637;47.760;-122.022;2023-03-05T10:28:04;19.7;;;17.6;;
73421;SDS011;61637;47.760;-122.022;2023-03-05T10:30:11;18.8;;;16.9;;
73421;SDS011;61637;47.760;-122.022;2023-03-05T10:32:11;19.2;;;17.3;;
73421;SDS011;61637;47.760;-122.022;2023-03-05T10:34:10;20.5;;;18.6;;
73421;SDS011;61637;47.760;-122.022;2023-03-05T10:36:15;20.4;;;18.3;;
73421;SDS011;61637;47.760;-122.022;2023-03-05T10:38:15;18.4;;;16.7;;
73421;SDS011;61637;47.760;-122.022;2023-03-05T10:40:07;20.4;;;18.6;;
73421;SDS011;61637;47.760;-122.022;2023-03-05T10:42:10;19.3;;;17.5;;
73421;SDS011;61637;47.760;-122.022;2023-03-05T10:44:09;19.3;;;17.5;;
73421;SDS011;61637;47.760;-122.022;2023-03-05T10:46:03;18.9;;;17.2;;
73421;SDS011;61637;47.760;-122.022;2023-03-05T10:48:06;18.5;;;16.8;;
73421;SDS011;61637;47.760;-122.022;2023-03-05T10:50:01;20.5;;;18.5;;
73421;SDS011;61637;47.760;-122.022;2023-03-05T10:52:04;20.2;;;18.3;;
73421;SDS011;61637;47.760;-122.022;2023-03-05T10:54:08;21.7;;;19.6;;
73421;SDS011;61637;47.760;-122.022;2023-03-05T10:56:02;20.3;;;18.3;;
73421;SDS011;61637;47.760;-122.022;2023-03-05T10:58:10;20.8;;;18.9;;
73421;SDS011;61637;47.760;-122.022;2023-03-05T11:00:16;20.2;;;18.3;;
73421;SDS011;61637;47.760;-122.022;2023-03-05T11:02:04;19.2;;;17.4;;
73421;SDS011;61637;47.760;-122.022;2023-03-05T11:04:03;19.5;;;17.7;;
73421;SDS011;61637;47.760;-122.022;2023-03-05T11:06:02;20.7;;;18.7;;
73421;SDS011;61637;47.760;-122.022;2023-03-05T11:10:05;19.2;;;17.3;;
73421;SDS011;61637;47.760;-122.022;2023-03-05T11:12:05;20.1;;;18.2;;
73421;SDS011;61637;47.760;-122.022;2023-03-05T11:14:01;20.7;;;18.8;;
73421;SDS011;61637;47.760;-122.022;2023-03-05T11:16:04;19.7;;;17.8;;
73421;SDS011;61637;47.760;-122.022;2023-03-05T11:18:16;20.5;;;18.5;;
73421;SDS011;61637;47.760;-122.022;2023-03-05T11:22:13;19.6;;;17.7;;
73421;SDS011;61637;47.760;-122.022;2023-03-05T11:24:09;20.0;;;18.3;;
73421;SDS011;61637;47.760;-122.022;2023-03-05T11:26:04;20.3;;;18.5;;
73421;SDS011;61637;47.760;-122.022;2023-03-05T11:28:02;20.6;;;18.7;;
73421;SDS011;61637;47.760;-122.022;2023-03-05T11:30:02;19.7;;;17.8;;
73421;SDS011;61637;47.760;-122.022;2023-03-05T11:32:14;20.1;;;18.3;;
73421;SDS011;61637;47.760;-122.022;2023-03-05T11:34:03;20.4;;;18.5;;
73421;SDS011;61637;47.760;-122.022;2023-03-05T11:36:15;20.2;;;18.3;;
73421;SDS011;61637;47.760;-122.022;2023-03-05T11:38:03;20.3;;;18.4;;
73421;SDS011;61637;47.760;-122.022;2023-03-05T11:42:03;19.3;;;17.6;;